Airfield :
LOGIN :

Register | Disclaimer

   EN    FR    IT 

 










Legend :    VFR   Marginal VFR   IFR   Intensive IFR   Very Intensive IFR
Visi :
Ceiling :
>= 8 km
>= 3000ft
5 to 8 km
1000 to 3000 ft
1500m to 5 km
500 to 1000 ft
800 to 1500m
200 to 500 ft
< 800m
< 200 ft
Symbols :   Thunderstorms  Fog  Heavy snow  Heavy precipitations  Wind > 20 kt
SIGMETs :     Misc.  Thunderstorms  Icing  Turbulence  Mountain Waves  Volcanic Ashes







- Airport Elevation : 79 ft
- IATA code : SPU


LDSP - Split

CURRENT METAR :
  • 231330Z 22007KT CAVOK 19/13 Q1018 NOSIG

EXPIRED METARs :
  • 231300Z 24007KT 190V270 CAVOK 19/13 Q1018 NOSIG
  • 231230Z 23009KT CAVOK 19/13 Q1018 NOSIG
  • 231200Z 21006KT 170V260 CAVOK 19/12 Q1018 NOSIG
  • 231130Z VRB05KT CAVOK 20/11 Q1018 NOSIG
  • 231100Z 22006KT 180V250 CAVOK 19/11 Q1018 NOSIG

TAF TAF LDSP
Valid from the 23 at 12:00 until the 24 at 12:00 UTC


231125Z 2312/2412 23007KT CAVOK TX21/2411Z TN09/2405Z
BECMG 2316/2318 VRB02KT
BECMG 2410/2412 23008KT
No reported NOTAMs for that airfield.



MET'MAP, your aeronautical weather chart ! - Copyright ORBIFLY December 2007 - Disclaimer

ORBIFLY MET'MAP TEAM :

Programming & Development : Alexandra Zaïnal
Concept & Development : Baudouin d'Aumeries
Co-Development & Prog : Marc-Olivier Méhu
Technical & hardware support : Manuel Goepfert

Contact : metmap@orbifly.com




SOURCES & CREDITS :

   NOAA